createdAt,value
2022-08-25T00:01:24.688Z,23.84
2022-08-25T00:03:54.245Z,23.12
2022-08-25T00:06:21.522Z,23.61
2022-08-25T00:08:48.873Z,23.57
2022-08-25T00:11:24.162Z,23.75
2022-08-25T00:13:54.757Z,23.85
2022-08-25T00:16:22.565Z,23.95
2022-08-25T00:18:53.416Z,23.70
2022-08-25T00:21:20.167Z,24.02
2022-08-25T00:23:46.682Z,23.85
2022-08-25T00:26:14.985Z,23.41
2022-08-25T00:28:41.836Z,23.40
2022-08-25T00:31:12.935Z,23.53
2022-08-25T00:33:39.404Z,23.49
2022-08-25T00:36:06.422Z,23.86
2022-08-25T00:38:33.089Z,23.67
2022-08-25T00:41:08.518Z,23.92
2022-08-25T00:43:41.053Z,23.49
2022-08-25T00:46:09.607Z,22.81
2022-08-25T00:48:38.703Z,22.28
2022-08-25T00:51:09.839Z,22.02
2022-08-25T00:53:36.773Z,22.31
2022-08-25T00:56:04.133Z,22.59
2022-08-25T00:58:32.358Z,22.93
2022-08-25T01:00:59.736Z,22.51
2022-08-25T01:03:33.212Z,21.78
2022-08-25T01:06:04.291Z,21.69
2022-08-25T01:08:33.092Z,22.54
2022-08-25T01:11:04.842Z,22.49
2022-08-25T01:13:42.690Z,22.79
2022-08-25T01:16:09.327Z,23.25
2022-08-25T01:18:47.783Z,23.08
2022-08-25T01:21:15.186Z,22.60
2022-08-25T01:23:42.102Z,22.75
2022-08-25T01:26:15.815Z,22.47
2022-08-25T01:29:04.345Z,22.80
2022-08-25T01:31:32.340Z,23.12
2022-08-25T01:33:59.513Z,23.29
2022-08-25T01:36:28.320Z,23.38
2022-08-25T01:38:55.161Z,23.45
2022-08-25T01:41:32.018Z,23.38
2022-08-25T01:43:58.682Z,23.24
2022-08-25T01:46:25.676Z,23.31
2022-08-25T01:48:52.292Z,23.28
2022-08-25T01:51:25.175Z,23.24
2022-08-25T01:53:51.701Z,23.20
2022-08-25T01:56:18.291Z,23.20
2022-08-25T01:58:48.872Z,23.08
2022-08-25T02:01:22.297Z,23.04
2022-08-25T02:03:52.657Z,22.92
2022-08-25T02:06:27.681Z,23.02
2022-08-25T02:09:01.082Z,22.85
2022-08-25T02:11:28.697Z,22.96
2022-08-25T02:13:55.342Z,22.94
2022-08-25T02:16:29.074Z,22.08
2022-08-25T02:18:56.984Z,22.58
2022-08-25T02:21:23.473Z,22.86
2022-08-25T02:23:50.060Z,22.96
2022-08-25T02:26:19.062Z,22.91
2022-08-25T02:28:47.868Z,22.88
2022-08-25T02:31:15.479Z,22.95
2022-08-25T02:33:42.032Z,22.92
2022-08-25T02:36:09.063Z,22.90
2022-08-25T02:38:36.641Z,22.86
2022-08-25T02:41:13.493Z,22.87
2022-08-25T02:43:41.635Z,22.77
2022-08-25T02:46:08.936Z,22.51
2022-08-25T02:48:36.725Z,22.71
2022-08-25T02:51:05.815Z,22.76
2022-08-25T02:53:33.384Z,22.65
2022-08-25T02:55:59.911Z,22.58
2022-08-25T02:58:26.392Z,22.27
2022-08-25T03:00:53.071Z,22.47
2022-08-25T03:03:20.660Z,22.54
2022-08-25T03:05:47.966Z,22.56
2022-08-25T03:08:15.056Z,22.42
2022-08-25T03:10:41.616Z,22.49
2022-08-25T03:13:08.122Z,22.19
2022-08-25T03:15:37.769Z,22.45
2022-08-25T03:18:05.923Z,22.24
2022-08-25T03:20:35.668Z,22.00
2022-08-25T03:23:03.039Z,21.96
2022-08-25T03:25:48.077Z,22.27
2022-08-25T03:28:14.822Z,22.28
2022-08-25T03:30:41.990Z,22.25
2022-08-25T03:33:09.248Z,22.35
2022-08-25T03:35:35.763Z,22.28
2022-08-25T03:38:02.919Z,21.69
2022-08-25T03:40:29.961Z,21.78
2022-08-25T03:42:56.811Z,21.40
2022-08-25T03:45:24.829Z,21.08
2022-08-25T03:47:52.398Z,21.06
2022-08-25T03:50:20.679Z,20.95
2022-08-25T03:52:52.294Z,21.90
2022-08-25T03:55:18.768Z,21.73
2022-08-25T03:57:45.192Z,21.60
2022-08-25T04:00:12.376Z,21.59
2022-08-25T04:02:40.009Z,21.94
2022-08-25T04:05:07.235Z,22.22
2022-08-25T04:07:33.814Z,22.30
2022-08-25T04:10:00.302Z,22.34
2022-08-25T04:12:26.782Z,22.08
2022-08-25T04:14:53.282Z,21.99
2022-08-25T04:17:19.833Z,22.27
2022-08-25T04:19:46.280Z,22.31
2022-08-25T04:22:13.240Z,22.16
2022-08-25T04:24:40.114Z,21.90
2022-08-25T04:27:06.597Z,22.05
2022-08-25T04:29:34.029Z,22.21
2022-08-25T04:32:00.591Z,22.06
2022-08-25T04:34:29.503Z,22.03
2022-08-25T04:37:02.500Z,21.91
2022-08-25T04:39:29.143Z,21.81
2022-08-25T04:41:55.909Z,22.18
2022-08-25T04:44:22.442Z,21.84
2022-08-25T04:46:49.709Z,22.16
2022-08-25T04:49:16.241Z,21.83
2022-08-25T04:51:42.944Z,22.02
2022-08-25T04:54:13.057Z,21.79
2022-08-25T04:56:41.416Z,21.66
2022-08-25T04:59:13.727Z,22.08
2022-08-25T05:01:42.301Z,21.52
2022-08-25T05:04:14.714Z,21.85
2022-08-25T05:06:54.842Z,22.05
2022-08-25T05:09:21.783Z,21.72
2022-08-25T05:11:48.633Z,21.60
2022-08-25T05:14:18.142Z,22.04
2022-08-25T05:16:46.293Z,21.96
2022-08-25T05:19:13.093Z,21.27
2022-08-25T05:21:39.814Z,21.98
2022-08-25T05:24:07.717Z,21.51
2022-08-25T05:26:36.599Z,21.60
2022-08-25T05:29:04.973Z,21.85
2022-08-25T05:31:32.739Z,21.06
2022-08-25T05:34:00.397Z,21.94
2022-08-25T05:36:28.003Z,21.59
2022-08-25T05:38:54.559Z,22.39
2022-08-25T05:41:25.182Z,21.86
2022-08-25T05:43:52.162Z,21.01
2022-08-25T05:46:20.059Z,20.87
2022-08-25T05:48:47.716Z,22.14
2022-08-25T05:51:15.035Z,22.15
2022-08-25T05:53:44.729Z,22.76
2022-08-25T05:56:11.911Z,23.07
2022-08-25T05:58:38.394Z,22.32
2022-08-25T06:01:24.608Z,23.31
2022-08-25T06:03:54.262Z,23.69
2022-08-25T06:06:23.149Z,23.80
2022-08-25T06:08:49.879Z,24.16
2022-08-25T06:11:16.439Z,24.46
2022-08-25T06:13:43.458Z,24.23
2022-08-25T06:16:10.122Z,24.36
2022-08-25T06:18:36.640Z,24.67
2022-08-25T06:21:13.654Z,24.35
2022-08-25T06:23:40.725Z,24.77
2022-08-25T06:26:10.030Z,24.93
2022-08-25T06:28:39.689Z,23.94
2022-08-25T06:31:06.463Z,24.26
2022-08-25T06:33:33.341Z,25.08
2022-08-25T06:35:59.892Z,25.33
2022-08-25T06:38:27.097Z,25.64
2022-08-25T06:40:53.915Z,25.73
2022-08-25T06:43:21.774Z,25.67
2022-08-25T06:45:48.579Z,24.51
2022-08-25T06:48:15.610Z,23.92
2022-08-25T06:50:42.814Z,24.67
2022-08-25T06:53:09.416Z,25.33
2022-08-25T06:55:36.812Z,25.64
2022-08-25T06:58:04.922Z,25.78
2022-08-25T07:00:32.904Z,25.41
2022-08-25T07:03:01.128Z,26.35
2022-08-25T07:05:40.913Z,26.27
2022-08-25T07:08:11.603Z,26.43
2022-08-25T07:10:38.133Z,26.63
2022-08-25T07:13:04.576Z,26.69
2022-08-25T07:15:31.084Z,26.35
2022-08-25T07:17:57.641Z,26.54
2022-08-25T07:22:52.027Z,26.76
2022-08-25T07:25:18.708Z,27.51
2022-08-25T07:27:45.264Z,27.32
2022-08-25T07:30:11.770Z,27.29
2022-08-25T07:32:38.342Z,26.39
2022-08-25T07:35:19.071Z,27.09
2022-08-25T07:37:58.041Z,27.38
2022-08-25T07:40:24.942Z,26.80
2022-08-25T07:42:54.669Z,27.68
2022-08-25T07:45:30.051Z,28.32
2022-08-25T07:48:06.819Z,27.96
2022-08-25T07:50:34.395Z,28.97
2022-08-25T07:53:01.017Z,28.93
2022-08-25T07:55:28.450Z,27.65
2022-08-25T07:57:57.328Z,28.91
2022-08-25T08:00:27.643Z,29.92
2022-08-25T08:02:54.958Z,30.43
2022-08-25T08:05:23.997Z,29.07
2022-08-25T08:07:51.031Z,28.25
2022-08-25T08:13:07.133Z,29.61
2022-08-25T08:15:34.953Z,29.76
2022-08-25T08:18:02.021Z,29.65
2022-08-25T08:20:32.098Z,30.30
2022-08-25T08:23:09.443Z,28.90
2022-08-25T08:25:36.062Z,29.63
2022-08-25T08:28:02.906Z,27.88
2022-08-25T08:30:29.521Z,29.86
2022-08-25T08:33:12.419Z,30.15
2022-08-25T08:35:41.162Z,29.56
2022-08-25T08:38:14.687Z,27.68
2022-08-25T08:41:23.091Z,28.70
2022-08-25T08:43:56.422Z,28.77
2022-08-25T08:46:26.010Z,29.24
2022-08-25T08:49:04.530Z,28.10
2022-08-25T08:51:35.911Z,29.44
2022-08-25T08:54:15.011Z,28.48
2022-08-25T08:56:48.166Z,28.85
2022-08-25T08:59:30.339Z,28.64
2022-08-25T09:02:02.686Z,29.45
2022-08-25T09:04:37.648Z,28.20
2022-08-25T09:07:12.064Z,28.93
2022-08-25T09:09:41.914Z,28.85
2022-08-25T09:12:19.562Z,27.99
2022-08-25T09:14:58.325Z,28.87
2022-08-25T09:17:59.087Z,28.99
2022-08-25T09:21:05.398Z,28.62
2022-08-25T09:23:58.326Z,28.96
2022-08-25T09:26:36.295Z,29.26
2022-08-25T09:29:07.304Z,28.68
2022-08-25T09:31:43.583Z,28.13
2022-08-25T09:34:18.774Z,28.94
2022-08-25T09:36:48.398Z,28.07
2022-08-25T09:39:15.410Z,27.48
2022-08-25T09:41:51.614Z,27.14
2022-08-25T09:44:25.978Z,27.29
2022-08-25T09:47:17.267Z,27.60
2022-08-25T09:49:49.093Z,28.37
2022-08-25T09:52:25.388Z,29.08
2022-08-25T09:54:53.816Z,28.27
2022-08-25T09:57:33.635Z,28.83
2022-08-25T10:00:15.099Z,27.97
2022-08-25T10:02:43.940Z,28.26
2022-08-25T10:05:23.717Z,27.86
2022-08-25T10:07:59.134Z,28.59
2022-08-25T10:10:52.898Z,28.82
2022-08-25T10:13:23.598Z,28.99
2022-08-25T10:16:25.080Z,28.95
2022-08-25T10:19:00.963Z,28.52
2022-08-25T10:21:27.432Z,28.68
2022-08-25T10:23:55.958Z,29.47
2022-08-25T10:26:34.941Z,29.01
2022-08-25T10:29:30.958Z,28.99
2022-08-25T10:32:18.689Z,29.40
2022-08-25T10:34:51.623Z,29.15
2022-08-25T10:37:43.910Z,29.77
2022-08-25T10:40:28.704Z,29.47
2022-08-25T10:43:07.399Z,29.46
2022-08-25T10:46:03.457Z,28.71
2022-08-25T10:48:50.604Z,29.85
2022-08-25T10:51:39.135Z,30.03
2022-08-25T10:54:27.501Z,29.63
2022-08-25T10:57:09.098Z,29.94
2022-08-25T11:00:05.909Z,29.96
2022-08-25T11:02:41.376Z,29.24
2022-08-25T11:05:16.982Z,29.86
2022-08-25T11:07:58.408Z,30.69
2022-08-25T11:11:24.272Z,30.10
2022-08-25T11:14:11.139Z,29.72
2022-08-25T11:16:57.412Z,30.28
2022-08-25T11:19:33.777Z,30.55
2022-08-25T11:22:11.687Z,30.90
2022-08-25T11:25:16.827Z,28.71
2022-08-25T11:28:03.610Z,29.67
2022-08-25T11:30:30.367Z,29.58
2022-08-25T11:32:57.861Z,27.87
2022-08-25T11:35:42.439Z,29.93
2022-08-25T11:38:48.116Z,28.62
2022-08-25T11:41:53.255Z,28.92
2022-08-25T11:44:45.625Z,29.16
2022-08-25T11:47:55.387Z,29.83
2022-08-25T11:50:30.080Z,29.65
2022-08-25T11:53:17.912Z,28.80
2022-08-25T11:55:53.667Z,29.87
2022-08-25T11:58:50.996Z,29.61
2022-08-25T12:01:39.223Z,29.55
2022-08-25T12:04:44.747Z,30.04
2022-08-25T12:07:14.867Z,30.04
2022-08-25T12:09:50.088Z,28.94
2022-08-25T12:12:31.969Z,29.17
2022-08-25T12:15:20.417Z,29.38
2022-08-25T12:18:11.525Z,28.95
2022-08-25T12:20:53.403Z,29.49
2022-08-25T12:23:31.914Z,30.47
2022-08-25T12:26:04.077Z,30.25
2022-08-25T12:29:07.546Z,28.64
2022-08-25T12:31:52.787Z,29.39
2022-08-25T12:34:26.988Z,30.66
2022-08-25T12:37:13.250Z,29.73
2022-08-25T12:39:50.821Z,30.58
2022-08-25T12:42:39.716Z,29.42
2022-08-25T12:45:21.158Z,29.55
2022-08-25T12:48:25.275Z,29.02
2022-08-25T12:51:19.559Z,28.98
2022-08-25T12:54:10.914Z,30.33
2022-08-25T12:56:47.742Z,30.04
2022-08-25T12:59:32.781Z,29.33
2022-08-25T13:02:52.162Z,29.16
2022-08-25T13:05:37.607Z,29.30
2022-08-25T13:08:22.707Z,29.02
2022-08-25T13:11:04.667Z,29.17
2022-08-25T13:13:49.096Z,29.95
2022-08-25T13:16:27.079Z,29.62
2022-08-25T13:18:59.141Z,29.83
2022-08-25T13:21:30.617Z,29.78
2022-08-25T13:24:04.681Z,30.98
2022-08-25T13:26:48.499Z,29.54
2022-08-25T13:29:27.743Z,29.83
2022-08-25T13:31:58.764Z,30.25
2022-08-25T13:35:12.527Z,29.97
2022-08-25T13:37:40.777Z,30.96
2022-08-25T13:40:10.197Z,29.90
2022-08-25T13:42:43.658Z,30.86
2022-08-25T13:45:17.171Z,31.57
2022-08-25T13:47:45.598Z,31.04
2022-08-25T13:50:17.440Z,29.93
2022-08-25T13:52:58.902Z,30.15
2022-08-25T13:55:50.769Z,31.46
2022-08-25T13:58:24.707Z,31.18
2022-08-25T14:01:48.635Z,30.88
2022-08-25T14:04:50.680Z,30.32
2022-08-25T14:07:21.113Z,30.25
2022-08-25T14:10:00.134Z,31.60
2022-08-25T14:12:36.498Z,31.32
2022-08-25T14:15:11.608Z,32.12
2022-08-25T14:17:41.908Z,31.87
2022-08-25T14:20:20.319Z,31.66
2022-08-25T14:22:47.075Z,30.72
2022-08-25T14:25:13.613Z,31.72
2022-08-25T14:28:06.831Z,31.15
2022-08-25T14:30:34.704Z,30.58
2022-08-25T14:33:03.937Z,31.01
2022-08-25T14:35:31.477Z,31.50
2022-08-25T14:37:58.263Z,31.66
2022-08-25T14:40:24.891Z,31.32
2022-08-25T14:42:51.489Z,31.93
2022-08-25T14:45:19.255Z,32.12
2022-08-25T14:47:49.732Z,32.14
2022-08-25T14:50:20.177Z,32.06
2022-08-25T14:52:48.223Z,31.97
2022-08-25T14:55:31.276Z,31.89
2022-08-25T14:57:58.532Z,32.18
2022-08-25T15:00:26.052Z,31.45
2022-08-25T15:02:53.146Z,31.83
2022-08-25T15:05:24.663Z,31.75
2022-08-25T15:08:12.280Z,31.59
2022-08-25T15:10:40.165Z,32.01
2022-08-25T15:13:07.266Z,31.53
2022-08-25T15:15:38.065Z,32.35
2022-08-25T15:18:05.480Z,31.87
2022-08-25T15:20:32.827Z,31.44
2022-08-25T15:22:59.764Z,30.84
2022-08-25T15:25:26.619Z,31.78
2022-08-25T15:27:54.111Z,32.08
2022-08-25T15:30:20.858Z,32.31
2022-08-25T15:32:57.515Z,31.23
2022-08-25T15:35:24.446Z,31.60
2022-08-25T15:37:55.691Z,31.34
2022-08-25T15:40:22.338Z,31.75
2022-08-25T15:42:48.886Z,31.49
2022-08-25T15:45:15.510Z,31.44
2022-08-25T15:47:42.258Z,31.76
2022-08-25T15:50:15.566Z,31.81
2022-08-25T15:52:46.336Z,31.39
2022-08-25T15:55:14.651Z,32.05
2022-08-25T15:57:41.141Z,31.32
2022-08-25T16:00:11.957Z,31.98
2022-08-25T16:02:40.457Z,31.34
2022-08-25T16:05:08.913Z,31.81
2022-08-25T16:07:36.139Z,31.81
2022-08-25T16:10:04.040Z,31.79
2022-08-25T16:12:31.619Z,32.29
2022-08-25T16:14:58.298Z,31.62
2022-08-25T16:17:25.175Z,32.12
2022-08-25T16:19:51.645Z,31.81
2022-08-25T16:22:18.112Z,31.35
2022-08-25T16:24:45.026Z,31.47
2022-08-25T16:27:12.895Z,31.74
2022-08-25T16:29:41.926Z,31.53
2022-08-25T16:32:10.395Z,31.48
2022-08-25T16:34:37.429Z,31.03
2022-08-25T16:37:06.240Z,31.30
2022-08-25T16:39:32.976Z,31.48
2022-08-25T16:41:59.514Z,31.14
2022-08-25T16:44:26.077Z,31.50
2022-08-25T16:46:54.608Z,30.51
2022-08-25T16:49:24.459Z,31.35
2022-08-25T16:51:52.236Z,30.88
2022-08-25T16:54:48.684Z,31.62
2022-08-25T16:57:15.560Z,32.03
2022-08-25T16:59:42.615Z,31.70
2022-08-25T17:02:10.542Z,31.48
2022-08-25T17:04:37.213Z,31.17
2022-08-25T17:07:04.598Z,31.46
2022-08-25T17:09:31.727Z,31.62
2022-08-25T17:11:58.233Z,31.91
2022-08-25T17:14:25.391Z,30.01
2022-08-25T17:16:55.046Z,31.42
2022-08-25T17:19:23.830Z,31.77
2022-08-25T17:21:52.144Z,31.46
2022-08-25T17:24:18.903Z,31.23
2022-08-25T17:26:49.756Z,31.32
2022-08-25T17:29:17.997Z,30.42
2022-08-25T17:31:46.270Z,30.53
2022-08-25T17:34:16.507Z,30.09
2022-08-25T17:36:44.298Z,30.53
2022-08-25T17:39:12.797Z,30.11
2022-08-25T17:41:41.740Z,30.84
2022-08-25T17:44:08.219Z,31.18
2022-08-25T17:46:34.868Z,31.31
2022-08-25T17:49:01.502Z,30.84
2022-08-25T17:51:31.780Z,30.88
2022-08-25T17:53:58.729Z,31.06
2022-08-25T17:56:27.389Z,30.58
2022-08-25T17:58:55.600Z,30.87
2022-08-25T18:01:25.516Z,29.67
2022-08-25T18:03:52.952Z,30.48
2022-08-25T18:06:21.142Z,30.23
2022-08-25T18:08:51.693Z,30.56
2022-08-25T18:11:21.659Z,30.75
2022-08-25T18:13:48.114Z,30.27
2022-08-25T18:16:17.213Z,29.68
2022-08-25T18:18:44.580Z,30.27
2022-08-25T18:21:16.420Z,29.90
2022-08-25T18:23:43.090Z,30.12
2022-08-25T18:26:12.866Z,29.71
2022-08-25T18:28:40.044Z,30.29
2022-08-25T18:31:11.945Z,29.88
2022-08-25T18:33:41.722Z,30.30
2022-08-25T18:36:09.166Z,30.44
2022-08-25T18:38:57.983Z,30.39
2022-08-25T18:41:26.819Z,30.27
2022-08-25T18:43:53.439Z,30.35
2022-08-25T18:46:22.753Z,29.95
2022-08-25T18:48:52.787Z,30.04
2022-08-25T18:51:19.540Z,30.15
2022-08-25T18:53:51.085Z,30.24
2022-08-25T18:56:21.742Z,30.21
2022-08-25T18:58:48.441Z,29.92
2022-08-25T19:01:17.054Z,29.97
2022-08-25T19:03:45.063Z,29.38
2022-08-25T19:06:12.120Z,29.75
2022-08-25T19:08:41.803Z,29.89
2022-08-25T19:11:09.893Z,29.75
2022-08-25T19:13:37.386Z,29.83
2022-08-25T19:16:20.697Z,29.42
2022-08-25T19:18:48.888Z,29.65
2022-08-25T19:21:20.545Z,29.20
2022-08-25T19:23:50.260Z,28.42
2022-08-25T19:26:17.956Z,29.37
2022-08-25T19:28:49.024Z,29.46
2022-08-25T19:31:18.246Z,28.77
2022-08-25T19:33:46.009Z,29.16
2022-08-25T19:36:14.074Z,29.04
2022-08-25T19:38:40.790Z,29.25
2022-08-25T19:41:09.034Z,29.05
2022-08-25T19:43:55.735Z,29.09
2022-08-25T19:46:35.520Z,29.24
2022-08-25T19:49:07.948Z,29.03
2022-08-25T19:51:38.848Z,29.28
2022-08-25T19:54:06.826Z,28.02
2022-08-25T19:56:36.337Z,28.85
2022-08-25T19:59:03.640Z,28.87
2022-08-25T20:01:30.192Z,27.52
2022-08-25T20:03:57.011Z,28.36
2022-08-25T20:06:23.973Z,28.33
2022-08-25T20:09:00.347Z,28.78
2022-08-25T20:11:28.886Z,28.91
2022-08-25T20:13:59.272Z,28.27
2022-08-25T20:16:28.403Z,28.57
2022-08-25T20:18:55.002Z,28.44
2022-08-25T20:21:21.503Z,28.99
2022-08-25T20:24:07.107Z,28.99
2022-08-25T20:26:33.602Z,28.91
2022-08-25T20:29:00.050Z,28.85
2022-08-25T20:31:26.542Z,28.63
2022-08-25T20:33:54.083Z,28.56
2022-08-25T20:36:26.790Z,28.60
2022-08-25T20:38:53.316Z,28.82
2022-08-25T20:41:19.761Z,28.57
2022-08-25T20:43:46.460Z,28.21
2022-08-25T20:46:16.205Z,28.62
2022-08-25T20:48:44.287Z,28.47
2022-08-25T20:51:13.080Z,28.45
2022-08-25T20:53:42.374Z,27.88
2022-08-25T20:56:14.691Z,27.92
2022-08-25T20:58:42.596Z,28.37
2022-08-25T21:01:13.079Z,28.58
2022-08-25T21:03:44.336Z,28.60
2022-08-25T21:06:14.254Z,28.39
2022-08-25T21:08:45.143Z,28.72
2022-08-25T21:11:18.054Z,28.48
2022-08-25T21:13:45.813Z,28.66
2022-08-25T21:16:12.397Z,28.81
2022-08-25T21:18:47.966Z,28.64
2022-08-25T21:21:16.591Z,28.63
2022-08-25T21:23:45.547Z,28.47
2022-08-25T21:26:17.583Z,28.15
2022-08-25T21:28:47.834Z,28.45
2022-08-25T21:31:15.221Z,28.40
2022-08-25T21:33:42.854Z,28.07
2022-08-25T21:36:11.028Z,27.98
2022-08-25T21:38:38.199Z,28.46
2022-08-25T21:41:11.456Z,28.39
2022-08-25T21:43:38.210Z,28.26
2022-08-25T21:46:06.233Z,28.32
2022-08-25T21:48:33.850Z,28.37
2022-08-25T21:51:12.802Z,28.24
2022-08-25T21:53:39.817Z,28.27
2022-08-25T21:56:09.954Z,28.12
2022-08-25T21:58:37.894Z,27.38
2022-08-25T22:01:10.944Z,27.02
2022-08-25T22:03:39.011Z,27.50
2022-08-25T22:06:09.189Z,27.72
2022-08-25T22:08:37.951Z,27.11
2022-08-25T22:11:06.030Z,26.99
2022-08-25T22:13:34.239Z,27.44
2022-08-25T22:16:01.012Z,27.69
2022-08-25T22:18:28.401Z,27.63
2022-08-25T22:20:54.952Z,27.64
2022-08-25T22:23:22.665Z,27.80
2022-08-25T22:25:55.389Z,27.65
2022-08-25T22:28:22.622Z,27.83
2022-08-25T22:30:49.827Z,27.78
2022-08-25T22:33:17.774Z,27.77
2022-08-25T22:35:44.625Z,27.74
2022-08-25T22:38:12.588Z,27.60
2022-08-25T22:40:40.519Z,27.75
2022-08-25T22:43:10.855Z,27.44
2022-08-25T22:45:37.653Z,27.55
2022-08-25T22:48:05.500Z,27.49
2022-08-25T22:50:35.105Z,27.32
2022-08-25T22:53:01.793Z,27.39
2022-08-25T22:55:28.519Z,27.49
2022-08-25T22:57:55.233Z,27.46
2022-08-25T23:00:22.155Z,27.48
2022-08-25T23:02:53.019Z,27.39
2022-08-25T23:05:19.811Z,26.90
2022-08-25T23:07:47.556Z,27.39
2022-08-25T23:10:14.356Z,27.32
2022-08-25T23:12:42.699Z,26.87
2022-08-25T23:15:11.837Z,27.21
2022-08-25T23:17:38.420Z,26.70
2022-08-25T23:20:27.020Z,27.26
2022-08-25T23:22:54.395Z,27.33
2022-08-25T23:25:21.843Z,26.64
2022-08-25T23:27:48.392Z,27.13
2022-08-25T23:30:18.741Z,27.05
2022-08-25T23:32:47.842Z,27.33
2022-08-25T23:35:14.612Z,27.15
2022-08-25T23:37:41.072Z,26.97
2022-08-25T23:40:10.849Z,27.46
2022-08-25T23:42:37.388Z,27.05
2022-08-25T23:45:04.162Z,26.99
2022-08-25T23:47:30.691Z,27.01
2022-08-25T23:49:58.924Z,26.83
2022-08-25T23:52:27.244Z,26.93
2022-08-25T23:54:54.210Z,26.93
2022-08-25T23:57:20.651Z,27.25
2022-08-25T23:59:48.872Z,27.17
